Time;durP1;ratioP1;P1;durP2;ratioP2;P2;SDS_P1;SDS_P2;PMS_P1;PMS_P2;Temp;Humidity;BMP_temperature;BMP_pressure;BME280_temperature;BME280_humidity;BME280_pressure;Samples;Min_cycle;Max_cycle;Signal;HPM_P1;HPM_P2
2023/05/26 00:01:36;;;;;;;;;;;19.00;51.50;;;;;;5071661;28;19920;-69
2023/05/26 00:04:02;;;;;;;;;;;19.00;51.50;;;;;;5070456;28;20371;-69
2023/05/26 00:06:31;;;;;;;;;;;19.00;51.50;;;;;;5070730;28;19920;-69
2023/05/26 00:08:56;;;;;;;;;;;19.00;51.50;;;;;;5070412;28;19956;-69
2023/05/26 00:11:22;;;;;;;;;;;18.90;51.40;;;;;;5070349;28;20011;-69
2023/05/26 00:13:48;;;;;;;;;;;18.90;52.20;;;;;;5070142;28;19925;-69
2023/05/26 00:16:14;;;;;;;;;;;18.90;51.40;;;;;;5070326;28;19931;-69
2023/05/26 00:18:39;;;;;;;;;;;18.90;51.40;;;;;;5070252;28;19920;-69
2023/05/26 00:21:05;;;;;;;;;;;18.90;51.40;;;;;;5073282;28;20360;-69
2023/05/26 00:23:30;;;;;;;;;;;18.90;51.40;;;;;;5073816;28;19920;-69
2023/05/26 00:25:56;;;;;;;;;;;18.80;51.40;;;;;;5074247;28;19971;-69
2023/05/26 00:28:21;;;;;;;;;;;18.90;51.50;;;;;;5074179;28;20465;-69
2023/05/26 00:30:47;;;;;;;;;;;18.80;51.40;;;;;;5075172;28;20277;-69
2023/05/26 00:33:12;;;;;;;;;;;18.80;51.40;;;;;;5073599;28;19935;-69
2023/05/26 00:35:38;;;;;;;;;;;18.80;51.40;;;;;;5073607;28;19928;-69
2023/05/26 00:38:04;;;;;;;;;;;18.80;51.40;;;;;;5074383;28;19982;-69
2023/05/26 00:40:32;;;;;;;;;;;18.80;51.40;;;;;;5073526;28;19947;-69
2023/05/26 00:42:58;;;;;;;;;;;18.80;51.50;;;;;;5074682;28;20317;-69
2023/05/26 00:45:23;;;;;;;;;;;18.80;51.40;;;;;;5074915;28;20019;-69
2023/05/26 00:47:49;;;;;;;;;;;18.70;51.40;;;;;;5073838;28;19927;-69
2023/05/26 00:50:16;;;;;;;;;;;18.70;51.40;;;;;;5073493;28;19970;-69
2023/05/26 00:52:43;;;;;;;;;;;18.70;51.40;;;;;;5074680;28;19922;-69
2023/05/26 00:55:08;;;;;;;;;;;18.70;51.40;;;;;;5074894;28;19920;-69
2023/05/26 00:57:34;;;;;;;;;;;18.70;51.40;;;;;;5073054;28;20379;-69
2023/05/26 00:59:59;;;;;;;;;;;18.70;51.40;;;;;;5074477;28;19924;-69
2023/05/26 01:02:27;;;;;;;;;;;18.70;51.40;;;;;;5073201;28;20018;-69
2023/05/26 01:04:53;;;;;;;;;;;18.70;51.40;;;;;;5074420;28;20004;-69
2023/05/26 01:07:20;;;;;;;;;;;18.70;51.50;;;;;;5073741;28;19928;-69
2023/05/26 01:09:47;;;;;;;;;;;18.70;51.50;;;;;;5074482;28;20334;-69
2023/05/26 01:12:15;;;;;;;;;;;18.70;51.40;;;;;;5075729;28;19921;-69
2023/05/26 01:17:32;;;;;;;;;;;18.60;51.40;;;;;;5172097;27;19917;-69
2023/05/26 01:20:17;;;;;;;;;;;18.60;51.40;;;;;;5153395;27;19926;-69
2023/05/26 01:25:47;;;;;;;;;;;18.60;51.40;;;;;;5130771;27;20420;-69
2023/05/26 01:30:53;;;;;;;;;;;18.60;51.40;;;;;;5110252;27;19912;-69
2023/05/26 01:33:19;;;;;;;;;;;18.60;51.30;;;;;;5108816;28;19926;-69
2023/05/26 01:35:44;;;;;;;;;;;18.50;51.30;;;;;;5108811;28;19932;-69
2023/05/26 01:38:10;;;;;;;;;;;18.50;51.30;;;;;;5108606;28;19923;-70
2023/05/26 01:40:37;;;;;;;;;;;18.50;51.40;;;;;;5108788;28;20358;-69
2023/05/26 01:43:09;;;;;;;;;;;18.50;51.30;;;;;;5108817;28;19920;-70
2023/05/26 01:45:38;;;;;;;;;;;18.50;51.30;;;;;;5108607;28;19928;-69
2023/05/26 01:48:08;;;;;;;;;;;18.50;51.40;;;;;;5108692;28;19927;-69
2023/05/26 01:50:37;;;;;;;;;;;18.50;51.40;;;;;;5109830;28;20378;-70
2023/05/26 01:53:06;;;;;;;;;;;18.50;51.30;;;;;;5108858;28;20269;-69
2023/05/26 01:55:33;;;;;;;;;;;18.50;51.30;;;;;;5108795;28;20531;-69
2023/05/26 01:57:59;;;;;;;;;;;18.50;51.30;;;;;;5108127;28;20378;-69
2023/05/26 02:00:25;;;;;;;;;;;18.50;51.40;;;;;;5109504;28;19920;-69
2023/05/26 02:02:51;;;;;;;;;;;18.50;51.40;;;;;;5108386;28;19927;-69
2023/05/26 02:05:17;;;;;;;;;;;18.50;51.40;;;;;;5109428;28;19920;-70
2023/05/26 02:07:42;;;;;;;;;;;18.40;51.30;;;;;;5109043;28;19954;-70
2023/05/26 02:10:08;;;;;;;;;;;18.40;51.30;;;;;;5107920;28;20049;-69
2023/05/26 02:12:33;;;;;;;;;;;18.40;51.30;;;;;;5107952;28;19930;-69
2023/05/26 02:14:59;;;;;;;;;;;18.40;51.30;;;;;;5108055;28;19975;-69
2023/05/26 02:17:24;;;;;;;;;;;18.30;51.30;;;;;;5108174;28;20015;-69
2023/05/26 02:19:50;;;;;;;;;;;18.40;51.30;;;;;;5108380;28;19920;-69
2023/05/26 02:22:15;;;;;;;;;;;18.30;51.30;;;;;;5108114;28;20392;-69
2023/05/26 02:24:41;;;;;;;;;;;18.30;51.30;;;;;;5108202;28;19920;-70
2023/05/26 02:27:06;;;;;;;;;;;18.30;51.30;;;;;;5108143;28;20359;-70
2023/05/26 02:29:32;;;;;;;;;;;18.30;51.30;;;;;;5107605;28;20291;-69
2023/05/26 02:31:57;;;;;;;;;;;18.30;51.30;;;;;;5108204;28;19927;-69
2023/05/26 02:34:23;;;;;;;;;;;18.30;51.30;;;;;;5108798;28;20407;-70
2023/05/26 02:36:49;;;;;;;;;;;18.30;51.30;;;;;;5107552;28;19927;-69
2023/05/26 02:39:16;;;;;;;;;;;18.30;51.30;;;;;;5107742;28;19920;-69
2023/05/26 02:41:41;;;;;;;;;;;18.30;51.30;;;;;;5098002;28;19985;-69
2023/05/26 02:44:07;;;;;;;;;;;18.30;51.30;;;;;;5094377;28;19920;-68
2023/05/26 02:46:32;;;;;;;;;;;18.30;51.30;;;;;;5128161;27;19920;-69
2023/05/26 02:49:00;;;;;;;;;;;18.30;51.30;;;;;;5095192;28;19928;-69
2023/05/26 02:51:26;;;;;;;;;;;18.20;51.20;;;;;;5093506;28;19977;-69
2023/05/26 02:53:51;;;;;;;;;;;18.20;51.20;;;;;;5093986;28;20006;-69
2023/05/26 02:56:17;;;;;;;;;;;18.20;51.20;;;;;;5095051;28;19927;-68
2023/05/26 02:58:43;;;;;;;;;;;18.20;51.30;;;;;;5094845;28;20348;-68
2023/05/26 03:01:08;;;;;;;;;;;18.20;51.30;;;;;;5094066;28;20295;-69
2023/05/26 03:03:35;;;;;;;;;;;18.20;51.20;;;;;;5093550;28;19920;-69
2023/05/26 03:06:02;;;;;;;;;;;18.20;51.20;;;;;;5094124;28;19966;-69
2023/05/26 03:08:28;;;;;;;;;;;18.20;51.30;;;;;;5094736;28;19927;-69
2023/05/26 03:10:53;;;;;;;;;;;18.30;51.30;;;;;;5093162;28;20391;-69
2023/05/26 03:13:19;;;;;;;;;;;18.60;50.90;;;;;;5093018;28;19920;-69
2023/05/26 03:15:47;;;;;;;;;;;19.00;50.30;;;;;;5093377;28;19975;-69
2023/05/26 03:18:13;;;;;;;;;;;19.30;49.50;;;;;;5093105;28;19936;-69
2023/05/26 03:20:39;;;;;;;;;;;19.80;48.60;;;;;;5094595;28;19924;-69
2023/05/26 03:23:04;;;;;;;;;;;20.50;47.40;;;;;;5094466;28;19984;-69
2023/05/26 03:25:30;;;;;;;;;;;21.20;46.10;;;;;;5093219;28;19920;-69
2023/05/26 03:27:56;;;;;;;;;;;21.80;44.80;;;;;;5093464;28;19920;-69
2023/05/26 03:30:21;;;;;;;;;;;22.50;43.60;;;;;;5092739;28;19931;-69
2023/05/26 03:32:47;;;;;;;;;;;23.00;42.60;;;;;;5092599;28;19947;-69
2023/05/26 03:35:12;;;;;;;;;;;23.40;41.90;;;;;;5092840;28;19920;-68
2023/05/26 03:37:38;;;;;;;;;;;23.70;41.20;;;;;;5092902;28;19924;-69
2023/05/26 03:40:04;;;;;;;;;;;24.00;40.80;;;;;;5094089;28;20265;-69
2023/05/26 03:42:30;;;;;;;;;;;24.10;40.40;;;;;;5092769;28;20009;-69
2023/05/26 03:44:55;;;;;;;;;;;24.10;40.20;;;;;;5094132;28;19967;-69
2023/05/26 03:47:21;;;;;;;;;;;24.00;40.20;;;;;;5094452;28;19920;-69
2023/05/26 03:49:46;;;;;;;;;;;24.00;40.30;;;;;;5092661;28;19924;-69
2023/05/26 03:52:12;;;;;;;;;;;23.80;40.40;;;;;;5092202;28;20014;-69
2023/05/26 03:54:37;;;;;;;;;;;23.60;40.50;;;;;;5093318;28;19966;-69
2023/05/26 03:57:03;;;;;;;;;;;23.40;40.80;;;;;;5092514;28;19920;-69
2023/05/26 03:59:28;;;;;;;;;;;23.20;41.10;;;;;;5093683;28;19967;-70
2023/05/26 04:01:55;;;;;;;;;;;23.00;41.20;;;;;;5093947;28;19920;-70
2023/05/26 04:04:20;;;;;;;;;;;22.90;41.60;;;;;;5092438;28;19965;-70
2023/05/26 04:06:46;;;;;;;;;;;22.70;41.80;;;;;;5093747;28;19924;-70
2023/05/26 04:09:11;;;;;;;;;;;22.50;42.10;;;;;;5093507;28;20433;-70
2023/05/26 04:11:37;;;;;;;;;;;22.40;42.30;;;;;;5093589;28;19920;-69
2023/05/26 04:14:02;;;;;;;;;;;22.20;42.50;;;;;;5093444;28;19965;-70
2023/05/26 04:16:28;;;;;;;;;;;22.00;42.70;;;;;;5093388;28;19920;-70
2023/05/26 04:18:53;;;;;;;;;;;21.90;43.00;;;;;;5092118;28;20287;-70
2023/05/26 04:21:19;;;;;;;;;;;21.80;43.20;;;;;;5126239;27;19920;-71
2023/05/26 04:23:47;;;;;;;;;;;21.60;43.40;;;;;;5093464;28;19966;-70
2023/05/26 04:26:13;;;;;;;;;;;21.50;43.50;;;;;;5092035;28;19963;-70
2023/05/26 04:28:38;;;;;;;;;;;21.30;43.70;;;;;;5093823;28;19970;-70
2023/05/26 04:31:04;;;;;;;;;;;21.20;43.90;;;;;;5095408;28;19923;-71
2023/05/26 04:33:30;;;;;;;;;;;21.10;44.20;;;;;;5095024;28;19919;-70
2023/05/26 04:35:56;;;;;;;;;;;21.10;44.30;;;;;;5095005;28;20002;-70
2023/05/26 04:38:21;;;;;;;;;;;21.20;44.20;;;;;;5095094;28;20034;-70
2023/05/26 04:40:48;;;;;;;;;;;21.30;44.00;;;;;;5095370;28;19920;-70
2023/05/26 04:43:14;;;;;;;;;;;21.40;43.70;;;;;;5094985;28;19927;-69
2023/05/26 04:45:42;;;;;;;;;;;21.60;43.40;;;;;;5113246;28;20386;-69
2023/05/26 04:48:08;;;;;;;;;;;21.70;43.10;;;;;;5095150;28;19941;-70
2023/05/26 04:50:38;;;;;;;;;;;21.80;42.80;;;;;;5094862;28;19926;-70
2023/05/26 04:53:05;;;;;;;;;;;22.00;42.70;;;;;;5113188;28;19923;-70
2023/05/26 04:55:30;;;;;;;;;;;22.00;42.50;;;;;;5112797;28;20010;-70
2023/05/26 04:57:56;;;;;;;;;;;22.10;42.30;;;;;;5128788;27;20010;-69
2023/05/26 05:00:21;;;;;;;;;;;22.10;42.20;;;;;;5113176;28;20363;-70
2023/05/26 05:02:47;;;;;;;;;;;22.10;42.10;;;;;;5129256;27;19972;-70
2023/05/26 05:05:12;;;;;;;;;;;22.20;42.00;;;;;;5094597;28;19920;-70
2023/05/26 05:07:38;;;;;;;;;;;22.20;41.90;;;;;;5128846;27;19973;-70
2023/05/26 05:10:04;;;;;;;;;;;22.20;41.90;;;;;;5094648;28;20006;-70
2023/05/26 05:12:29;;;;;;;;;;;22.20;41.90;;;;;;5094984;28;19924;-70
2023/05/26 05:14:55;;;;;;;;;;;22.20;41.90;;;;;;5094435;28;19946;-70
2023/05/26 05:17:20;;;;;;;;;;;22.20;42.00;;;;;;5094332;28;19966;-70
2023/05/26 05:19:46;;;;;;;;;;;22.10;42.00;;;;;;5112866;28;19920;-70
2023/05/26 05:22:12;;;;;;;;;;;22.00;42.80;;;;;;5112873;28;19924;-70
2023/05/26 05:24:38;;;;;;;;;;;22.00;42.10;;;;;;5112818;28;19927;-70
2023/05/26 05:27:04;;;;;;;;;;;21.90;42.20;;;;;;5112712;28;19920;-70
2023/05/26 05:29:29;;;;;;;;;;;21.90;42.40;;;;;;5094252;28;20320;-70
2023/05/26 05:31:55;;;;;;;;;;;21.80;42.40;;;;;;5094694;28;20006;-70
2023/05/26 05:34:20;;;;;;;;;;;21.80;42.60;;;;;;5094077;28;20397;-70
2023/05/26 05:36:46;;;;;;;;;;;21.70;42.60;;;;;;5112539;28;20006;-70
2023/05/26 05:39:11;;;;;;;;;;;21.70;42.70;;;;;;5112419;28;19927;-70
2023/05/26 05:41:36;;;;;;;;;;;21.60;42.70;;;;;;5093980;28;19920;-70
2023/05/26 05:44:02;;;;;;;;;;;21.60;42.80;;;;;;5094368;28;19927;-67
2023/05/26 05:46:28;;;;;;;;;;;21.60;42.80;;;;;;5093200;28;19964;-66
2023/05/26 05:48:53;;;;;;;;;;;21.50;42.80;;;;;;5093183;28;19928;-66
2023/05/26 05:51:19;;;;;;;;;;;21.60;42.90;;;;;;5091575;28;19920;-68
2023/05/26 05:53:45;;;;;;;;;;;21.60;42.80;;;;;;5109137;28;19930;-67
2023/05/26 05:56:10;;;;;;;;;;;21.60;42.80;;;;;;5110049;28;20011;-66
2023/05/26 05:58:36;;;;;;;;;;;21.70;42.60;;;;;;5088912;28;20379;-70
2023/05/26 06:01:01;;;;;;;;;;;21.80;42.60;;;;;;5085781;28;19920;-69
2023/05/26 06:03:27;;;;;;;;;;;21.80;42.50;;;;;;5107424;28;20053;-68
2023/05/26 06:05:52;;;;;;;;;;;21.90;42.50;;;;;;5087954;28;19931;-71
2023/05/26 06:08:18;;;;;;;;;;;21.90;42.50;;;;;;5087514;28;19920;-68
2023/05/26 06:10:43;;;;;;;;;;;21.90;42.50;;;;;;5087493;28;19930;-70
2023/05/26 06:13:09;;;;;;;;;;;21.90;42.50;;;;;;5106536;28;19923;-68
2023/05/26 06:15:34;;;;;;;;;;;21.90;42.50;;;;;;5103102;28;19923;-68
2023/05/26 06:18:00;;;;;;;;;;;21.90;42.60;;;;;;5090998;28;19957;-68
2023/05/26 06:20:25;;;;;;;;;;;21.90;42.50;;;;;;5092512;28;19969;-68
2023/05/26 06:22:51;;;;;;;;;;;21.90;42.60;;;;;;5091692;28;20342;-68
2023/05/26 06:25:16;;;;;;;;;;;21.90;42.60;;;;;;5092348;28;20033;-70
2023/05/26 06:27:42;;;;;;;;;;;21.90;42.70;;;;;;5090720;28;19998;-70
2023/05/26 06:30:07;;;;;;;;;;;21.90;42.70;;;;;;5106521;28;20321;-72
2023/05/26 06:32:33;;;;;;;;;;;21.90;42.70;;;;;;5075881;28;19920;-72
2023/05/26 06:34:58;;;;;;;;;;;21.80;42.70;;;;;;5078917;28;19920;-71
2023/05/26 06:37:24;;;;;;;;;;;21.80;42.80;;;;;;5103800;27;20418;-72
2023/05/26 06:39:49;;;;;;;;;;;21.80;42.80;;;;;;5103148;27;19927;-71
2023/05/26 06:42:15;;;;;;;;;;;21.80;42.90;;;;;;5090234;28;20516;-72
2023/05/26 06:44:40;;;;;;;;;;;21.80;42.90;;;;;;5074871;28;19925;-71
2023/05/26 06:47:07;;;;;;;;;;;21.80;43.00;;;;;;5082045;28;19919;-71
2023/05/26 06:49:32;;;;;;;;;;;21.80;43.00;;;;;;5095557;28;19935;-65
2023/05/26 06:51:58;;;;;;;;;;;21.70;43.00;;;;;;5076161;28;20422;-67
2023/05/26 06:54:23;;;;;;;;;;;21.70;43.20;;;;;;5077250;28;19968;-67
2023/05/26 06:56:49;;;;;;;;;;;21.70;43.30;;;;;;5075249;28;19923;-66
2023/05/26 06:59:14;;;;;;;;;;;21.70;43.30;;;;;;5093880;28;20137;-66
2023/05/26 07:01:40;;;;;;;;;;;21.80;43.30;;;;;;5110410;27;20383;-66
2023/05/26 07:04:05;;;;;;;;;;;21.80;43.20;;;;;;5074118;28;20439;-66
2023/05/26 07:06:32;;;;;;;;;;;21.80;43.20;;;;;;5093529;28;20493;-65
2023/05/26 07:08:57;;;;;;;;;;;21.90;43.20;;;;;;5080423;28;19960;-65
2023/05/26 07:11:23;;;;;;;;;;;21.90;43.10;;;;;;5097789;28;20016;-65
2023/05/26 07:13:51;;;;;;;;;;;21.90;43.20;;;;;;5077312;28;19927;-70
2023/05/26 07:16:16;;;;;;;;;;;21.80;43.30;;;;;;5107821;27;19920;-69
2023/05/26 07:18:41;;;;;;;;;;;21.70;43.40;;;;;;5077725;28;20518;-70
2023/05/26 07:21:07;;;;;;;;;;;21.70;43.40;;;;;;5110760;27;20015;-70
2023/05/26 07:23:33;;;;;;;;;;;21.60;43.50;;;;;;5074328;28;19920;-70
2023/05/26 07:25:58;;;;;;;;;;;21.60;43.60;;;;;;5077722;28;20011;-72
2023/05/26 07:28:24;;;;;;;;;;;21.60;43.80;;;;;;5083217;28;20367;-70
2023/05/26 07:30:49;;;;;;;;;;;21.60;43.80;;;;;;5078877;28;19927;-68
2023/05/26 07:33:14;;;;;;;;;;;21.60;43.90;;;;;;5094733;28;20496;-74
2023/05/26 07:35:40;;;;;;;;;;;21.50;43.90;;;;;;5063936;28;19981;-69
2023/05/26 07:38:07;;;;;;;;;;;21.50;44.00;;;;;;5072492;28;20885;-69
2023/05/26 07:40:34;;;;;;;;;;;21.50;44.00;;;;;;5078041;28;19923;-67
2023/05/26 07:43:00;;;;;;;;;;;21.50;44.00;;;;;;5079053;28;20388;-68
2023/05/26 07:45:26;;;;;;;;;;;21.50;43.90;;;;;;5072335;28;19927;-68
2023/05/26 07:47:51;;;;;;;;;;;21.50;44.00;;;;;;5074718;28;19962;-66
2023/05/26 07:50:17;;;;;;;;;;;21.50;44.10;;;;;;5074328;28;19936;-67
2023/05/26 07:52:42;;;;;;;;;;;21.50;44.30;;;;;;5094778;28;20488;-68
2023/05/26 07:55:08;;;;;;;;;;;21.60;44.30;;;;;;5109345;27;19928;-69
2023/05/26 07:57:33;;;;;;;;;;;21.60;44.30;;;;;;5106088;27;19928;-68
2023/05/26 07:59:59;;;;;;;;;;;21.60;44.40;;;;;;5091783;28;20747;-67
2023/05/26 08:02:25;;;;;;;;;;;21.60;44.40;;;;;;5073840;28;19939;-67
2023/05/26 08:04:50;;;;;;;;;;;21.60;44.60;;;;;;5073719;28;19924;-67
2023/05/26 08:07:15;;;;;;;;;;;21.60;44.80;;;;;;5092928;28;19924;-68
2023/05/26 08:09:41;;;;;;;;;;;21.60;44.80;;;;;;5090766;28;19935;-67
2023/05/26 08:12:07;;;;;;;;;;;21.60;45.00;;;;;;5074735;28;19931;-71
2023/05/26 08:14:32;;;;;;;;;;;21.50;45.00;;;;;;5093532;28;19928;-70
2023/05/26 08:16:58;;;;;;;;;;;21.50;45.10;;;;;;5074172;28;19926;-68
2023/05/26 08:19:23;;;;;;;;;;;21.50;45.20;;;;;;5073749;28;19920;-71
2023/05/26 08:21:49;;;;;;;;;;;21.50;45.40;;;;;;5073484;28;20371;-70
2023/05/26 08:24:14;;;;;;;;;;;21.40;45.50;;;;;;5071842;28;19928;-69
2023/05/26 08:26:40;;;;;;;;;;;21.40;45.50;;;;;;5081295;28;19950;-69
2023/05/26 08:29:06;;;;;;;;;;;21.40;45.60;;;;;;5106251;27;20006;-70
2023/05/26 08:31:31;;;;;;;;;;;21.40;45.70;;;;;;5073523;28;19982;-70
2023/05/26 08:33:57;;;;;;;;;;;21.30;45.80;;;;;;5072266;28;19924;-69
2023/05/26 08:36:22;;;;;;;;;;;21.20;45.80;;;;;;5073445;28;19995;-69
2023/05/26 08:38:48;;;;;;;;;;;21.20;46.00;;;;;;5072798;28;19921;-69
2023/05/26 08:41:17;;;;;;;;;;;21.10;46.10;;;;;;5074317;28;19959;-69
2023/05/26 08:43:46;;;;;;;;;;;21.10;46.30;;;;;;5072524;28;19928;-69
2023/05/26 08:46:12;;;;;;;;;;;21.00;46.40;;;;;;5074606;28;19925;-69
2023/05/26 08:48:38;;;;;;;;;;;20.90;46.50;;;;;;5072850;28;19966;-68
2023/05/26 08:51:07;;;;;;;;;;;20.80;46.60;;;;;;5104187;27;19956;-67
2023/05/26 08:53:32;;;;;;;;;;;20.80;46.70;;;;;;5107279;27;20319;-71
2023/05/26 08:55:59;;;;;;;;;;;20.70;46.70;;;;;;5071059;28;19920;-69
2023/05/26 08:58:25;;;;;;;;;;;20.70;46.90;;;;;;5105883;27;19924;-69
2023/05/26 09:00:52;;;;;;;;;;;20.70;47.00;;;;;;5072791;28;19924;-68
2023/05/26 09:03:17;;;;;;;;;;;20.70;47.30;;;;;;5101525;27;19924;-71
2023/05/26 09:05:43;;;;;;;;;;;20.80;47.50;;;;;;5075708;28;19924;-71
2023/05/26 09:08:12;;;;;;;;;;;20.70;47.40;;;;;;5071273;28;19924;-71
2023/05/26 09:10:38;;;;;;;;;;;20.70;47.40;;;;;;5071037;28;20390;-71
2023/05/26 09:15:49;;;;;;;;;;;20.60;47.50;;;;;;5085118;27;19943;-72
2023/05/26 09:18:15;;;;;;;;;;;20.50;47.50;;;;;;5102541;28;19920;-69
2023/05/26 09:20:41;;;;;;;;;;;20.50;47.60;;;;;;5066283;28;20354;-74
2023/05/26 09:23:07;;;;;;;;;;;20.50;47.60;;;;;;5069148;28;19928;-70
2023/05/26 09:25:36;;;;;;;;;;;20.50;47.60;;;;;;5068891;28;19978;-69
2023/05/26 09:28:03;;;;;;;;;;;20.50;47.70;;;;;;5072148;28;20020;-68
2023/05/26 09:30:33;;;;;;;;;;;20.50;48.30;;;;;;5073010;28;20182;-67
2023/05/26 09:32:59;;;;;;;;;;;20.50;48.60;;;;;;5072834;28;20579;-70
2023/05/26 09:35:25;;;;;;;;;;;20.60;48.70;;;;;;5071592;28;20019;-70
2023/05/26 09:37:50;;;;;;;;;;;20.70;48.90;;;;;;5106594;28;19977;-69
2023/05/26 09:40:18;;;;;;;;;;;20.70;49.10;;;;;;5067479;28;20517;-70
2023/05/26 09:42:51;;;;;;;;;;;20.80;49.20;;;;;;5069781;28;19924;-68
2023/05/26 09:45:16;;;;;;;;;;;20.80;49.10;;;;;;5088652;28;19928;-67
2023/05/26 09:47:42;;;;;;;;;;;20.80;49.20;;;;;;5070427;28;19924;-66
2023/05/26 09:50:07;;;;;;;;;;;20.90;49.40;;;;;;5072289;28;19955;-69
2023/05/26 09:52:33;;;;;;;;;;;20.90;49.30;;;;;;5071116;28;20039;-69
2023/05/26 09:54:59;;;;;;;;;;;21.00;49.30;;;;;;5072122;28;19982;-65
2023/05/26 09:57:27;;;;;;;;;;;21.00;49.30;;;;;;5064973;28;19924;-66
2023/05/26 09:59:55;;;;;;;;;;;21.00;49.20;;;;;;5073308;28;19921;-66
2023/05/26 10:02:21;;;;;;;;;;;21.10;49.20;;;;;;5076733;28;19924;-70
2023/05/26 10:04:49;;;;;;;;;;;21.10;49.10;;;;;;5075269;28;20359;-69
2023/05/26 10:07:15;;;;;;;;;;;21.10;49.00;;;;;;5108640;28;19951;-69
2023/05/26 10:09:42;;;;;;;;;;;21.10;48.90;;;;;;5076158;28;19924;-69
2023/05/26 10:12:09;;;;;;;;;;;21.10;48.80;;;;;;5094030;28;20276;-70
2023/05/26 10:14:35;;;;;;;;;;;21.10;48.70;;;;;;5075920;28;20346;-69
2023/05/26 10:17:02;;;;;;;;;;;21.10;48.60;;;;;;5073870;28;20015;-71
2023/05/26 10:19:28;;;;;;;;;;;21.10;48.60;;;;;;5080614;28;19920;-69
2023/05/26 10:21:55;;;;;;;;;;;21.10;48.40;;;;;;5089221;28;19970;-70
2023/05/26 10:24:25;;;;;;;;;;;21.10;48.50;;;;;;5075599;28;19924;-70
2023/05/26 10:26:54;;;;;;;;;;;21.10;48.40;;;;;;5078708;28;20054;-70
2023/05/26 10:29:24;;;;;;;;;;;21.10;48.40;;;;;;5057017;28;19928;-70
2023/05/26 10:31:50;;;;;;;;;;;21.00;48.30;;;;;;5061836;28;19924;-72
2023/05/26 10:34:35;;;;;;;;;;;21.00;48.00;;;;;;5058510;28;19974;-70
2023/05/26 10:37:01;;;;;;;;;;;21.00;48.00;;;;;;5059991;28;20406;-70
2023/05/26 10:39:27;;;;;;;;;;;21.00;47.50;;;;;;5075604;28;20482;-69
2023/05/26 10:41:53;;;;;;;;;;;20.90;47.50;;;;;;5092803;28;20015;-69
2023/05/26 10:44:38;;;;;;;;;;;20.90;47.30;;;;;;5056356;28;19933;-72
2023/05/26 10:47:04;;;;;;;;;;;20.90;47.00;;;;;;5044614;28;19972;-71
2023/05/26 10:49:33;;;;;;;;;;;20.90;46.50;;;;;;5049458;28;19925;-70
2023/05/26 10:52:06;;;;;;;;;;;20.80;46.50;;;;;;5072850;28;20020;-73
2023/05/26 10:54:31;;;;;;;;;;;20.90;46.90;;;;;;5058388;28;19935;-75
2023/05/26 10:56:57;;;;;;;;;;;20.90;46.70;;;;;;5063026;28;19924;-73
2023/05/26 10:59:30;;;;;;;;;;;20.90;46.90;;;;;;5059639;28;20437;-71
2023/05/26 11:01:55;;;;;;;;;;;20.90;46.90;;;;;;5060281;28;19924;-70
2023/05/26 11:04:21;;;;;;;;;;;20.90;46.90;;;;;;5057584;28;19924;-70
2023/05/26 11:09:27;;;;;;;;;;;21.00;47.10;;;;;;5078572;27;19921;-71
2023/05/26 11:11:58;;;;;;;;;;;21.00;47.10;;;;;;5072058;28;19940;-70
2023/05/26 11:17:04;;;;;;;;;;;21.00;47.20;;;;;;5080964;27;19920;-69
2023/05/26 11:19:32;;;;;;;;;;;21.00;47.30;;;;;;5056025;28;19923;-68
2023/05/26 11:21:59;;;;;;;;;;;21.00;47.40;;;;;;5050076;28;19954;-68
2023/05/26 11:24:25;;;;;;;;;;;21.00;47.50;;;;;;5057124;28;19954;-69
2023/05/26 11:26:53;;;;;;;;;;;21.00;47.50;;;;;;5057576;28;20343;-67
2023/05/26 11:29:21;;;;;;;;;;;20.90;47.50;;;;;;5046718;28;19928;-69
2023/05/26 11:31:47;;;;;;;;;;;21.00;47.60;;;;;;5050083;28;19936;-67
2023/05/26 11:34:12;;;;;;;;;;;21.00;47.70;;;;;;5059362;28;20410;-68
2023/05/26 11:36:39;;;;;;;;;;;21.00;47.70;;;;;;5057593;28;19932;-67
2023/05/26 11:39:05;;;;;;;;;;;20.90;47.70;;;;;;5069265;28;19963;-67
2023/05/26 11:41:30;;;;;;;;;;;20.90;47.80;;;;;;5063684;28;19920;-67
2023/05/26 11:43:56;;;;;;;;;;;20.90;47.80;;;;;;5077816;28;19925;-67
2023/05/26 11:46:22;;;;;;;;;;;20.90;47.90;;;;;;5048803;28;20288;-73
2023/05/26 11:48:48;;;;;;;;;;;20.90;47.90;;;;;;5056834;28;19965;-71
2023/05/26 11:51:14;;;;;;;;;;;20.90;48.10;;;;;;5056531;28;20318;-69
2023/05/26 11:53:41;;;;;;;;;;;20.90;48.20;;;;;;5047320;28;19925;-71
2023/05/26 11:56:08;;;;;;;;;;;20.90;48.20;;;;;;5073552;28;20359;-67
2023/05/26 11:58:35;;;;;;;;;;;20.90;48.10;;;;;;5069067;28;20456;-71
2023/05/26 12:01:01;;;;;;;;;;;21.00;47.90;;;;;;5059491;28;19927;-71
2023/05/26 12:03:26;;;;;;;;;;;21.10;47.60;;;;;;5045815;28;19924;-71
2023/05/26 12:05:52;;;;;;;;;;;21.10;47.40;;;;;;5066379;28;19924;-73
2023/05/26 12:08:17;;;;;;;;;;;21.10;47.30;;;;;;5052959;28;19927;-73
2023/05/26 12:10:43;;;;;;;;;;;21.00;47.20;;;;;;5065790;28;19983;-73
2023/05/26 12:13:09;;;;;;;;;;;21.00;47.20;;;;;;5059980;28;19954;-73
2023/05/26 12:15:34;;;;;;;;;;;20.90;47.30;;;;;;5050053;28;19930;-73
2023/05/26 12:18:01;;;;;;;;;;;20.90;47.40;;;;;;5065185;28;20527;-73
2023/05/26 12:20:26;;;;;;;;;;;20.90;47.50;;;;;;5072518;28;19971;-73
2023/05/26 12:23:01;;;;;;;;;;;20.80;47.60;;;;;;5052305;28;19967;-73
2023/05/26 12:25:28;;;;;;;;;;;20.80;47.60;;;;;;5042224;28;19929;-73
2023/05/26 12:27:53;;;;;;;;;;;20.70;47.70;;;;;;5059592;28;20268;-73
2023/05/26 12:30:20;;;;;;;;;;;20.70;47.80;;;;;;5045102;28;19950;-73
2023/05/26 12:32:46;;;;;;;;;;;20.70;47.80;;;;;;5056406;28;19924;-73
2023/05/26 12:35:13;;;;;;;;;;;20.60;47.90;;;;;;5040035;28;19928;-73
2023/05/26 12:37:38;;;;;;;;;;;20.60;47.90;;;;;;5042176;28;19921;-73
2023/05/26 12:40:05;;;;;;;;;;;20.60;47.90;;;;;;5052756;28;19931;-72
2023/05/26 12:42:31;;;;;;;;;;;20.60;48.00;;;;;;5044493;28;19921;-73
2023/05/26 12:44:56;;;;;;;;;;;20.50;47.90;;;;;;5056615;28;19925;-72
2023/05/26 12:47:22;;;;;;;;;;;20.50;48.00;;;;;;5043170;28;19928;-73
2023/05/26 12:49:47;;;;;;;;;;;20.50;48.00;;;;;;5060174;28;20587;-72
2023/05/26 12:52:12;;;;;;;;;;;20.50;48.10;;;;;;5055876;28;19946;-73
2023/05/26 12:54:38;;;;;;;;;;;20.50;48.10;;;;;;5039095;28;19921;-73
2023/05/26 12:57:04;;;;;;;;;;;20.50;48.10;;;;;;5045191;28;19920;-72
2023/05/26 12:59:31;;;;;;;;;;;20.50;48.90;;;;;;5044312;28;19982;-73
2023/05/26 13:01:56;;;;;;;;;;;20.50;48.20;;;;;;5039917;28;19971;-72
2023/05/26 13:04:22;;;;;;;;;;;20.50;48.20;;;;;;5041887;28;19925;-72
2023/05/26 13:06:49;;;;;;;;;;;20.40;48.20;;;;;;5061658;28;20361;-72
2023/05/26 13:09:14;;;;;;;;;;;20.40;48.20;;;;;;5046238;28;20528;-72
2023/05/26 13:11:40;;;;;;;;;;;20.40;48.10;;;;;;5038378;28;20149;-72
2023/05/26 13:14:05;;;;;;;;;;;20.40;48.20;;;;;;5060095;28;19932;-73
2023/05/26 13:16:31;;;;;;;;;;;20.40;48.20;;;;;;5041449;28;19925;-72
2023/05/26 13:18:56;;;;;;;;;;;20.40;48.30;;;;;;5052683;28;20285;-72
2023/05/26 13:21:22;;;;;;;;;;;20.40;48.30;;;;;;5051224;28;20372;-72
2023/05/26 13:23:50;;;;;;;;;;;20.40;48.30;;;;;;5070452;28;19920;-72
2023/05/26 13:26:16;;;;;;;;;;;20.40;48.20;;;;;;5068642;28;19971;-72
2023/05/26 13:28:42;;;;;;;;;;;20.40;48.30;;;;;;5049661;28;20013;-72
2023/05/26 13:31:07;;;;;;;;;;;20.40;48.20;;;;;;5055210;28;20368;-72
2023/05/26 13:33:33;;;;;;;;;;;20.40;48.20;;;;;;5052032;28;19928;-72
2023/05/26 13:35:58;;;;;;;;;;;20.40;48.30;;;;;;5050527;28;19924;-72
2023/05/26 13:38:24;;;;;;;;;;;20.40;48.30;;;;;;5049750;28;19921;-71
2023/05/26 13:40:49;;;;;;;;;;;20.40;48.40;;;;;;5048768;28;19951;-72
2023/05/26 13:43:15;;;;;;;;;;;20.40;48.30;;;;;;5050697;28;19928;-72
2023/05/26 13:45:40;;;;;;;;;;;20.40;48.30;;;;;;5050636;28;19974;-72
2023/05/26 13:48:07;;;;;;;;;;;20.40;48.40;;;;;;5048730;28;19924;-72
2023/05/26 13:50:32;;;;;;;;;;;20.40;48.40;;;;;;5033090;28;20271;-72
2023/05/26 13:52:58;;;;;;;;;;;20.40;48.40;;;;;;5049749;28;19921;-72
2023/05/26 13:55:24;;;;;;;;;;;20.40;48.40;;;;;;5050113;28;19925;-72
2023/05/26 13:57:49;;;;;;;;;;;20.40;48.40;;;;;;5049895;28;20596;-72
2023/05/26 14:00:15;;;;;;;;;;;20.40;48.40;;;;;;5049950;28;19921;-72
2023/05/26 14:02:40;;;;;;;;;;;20.40;48.30;;;;;;5035994;28;19931;-73
2023/05/26 14:05:06;;;;;;;;;;;20.40;48.40;;;;;;5052293;28;19924;-72
2023/05/26 14:07:32;;;;;;;;;;;20.40;48.40;;;;;;5048687;28;19921;-72
2023/05/26 14:09:57;;;;;;;;;;;20.40;48.40;;;;;;5051546;28;20292;-72
2023/05/26 14:12:23;;;;;;;;;;;20.40;48.40;;;;;;5052306;28;19921;-72
2023/05/26 14:14:49;;;;;;;;;;;20.40;48.40;;;;;;5070207;28;19921;-71
2023/05/26 14:17:15;;;;;;;;;;;20.40;48.40;;;;;;5070349;28;19959;-72
2023/05/26 14:19:40;;;;;;;;;;;20.40;49.20;;;;;;5071736;28;20400;-71
2023/05/26 14:22:06;;;;;;;;;;;20.40;48.40;;;;;;5053298;28;19924;-72
2023/05/26 14:24:31;;;;;;;;;;;20.40;48.40;;;;;;5071575;28;19943;-72
2023/05/26 14:26:57;;;;;;;;;;;20.40;48.40;;;;;;5052275;28;20033;-72